Time;durP1;ratioP1;P1;durP2;ratioP2;P2;SDS_P1;SDS_P2;PMS_P1;PMS_P2;Temp;Humidity;BMP_temperature;BMP_pressure;BME280_temperature;BME280_humidity;BME280_pressure;Samples;Min_cycle;Max_cycle;Signal;HPM_P1;HPM_P2
2023/11/27 00:01:45;;;;;;;7.70;6.10;;;0.30;99.90;;;;;;5792596;24;20512;-86
2023/11/27 00:32:43;;;;;;;7.73;6.47;;;0.10;99.90;;;;;;5656914;24;20173;-84
2023/11/27 01:54:02;;;;;;;11.73;9.00;;;0.30;99.90;;;;;;5739026;24;20252;-84
2023/11/27 02:24:20;;;;;;;11.53;9.20;;;0.20;99.90;;;;;;5881880;23;20737;-84
2023/11/27 02:54:55;;;;;;;15.77;10.10;;;0.00;99.90;;;;;;5861667;23;20529;-83
2023/11/27 03:25:07;;;;;;;17.00;10.87;;;0.00;99.90;;;;;;5562027;25;20732;-84
2023/11/27 05:38:35;;;;;;;22.30;14.07;;;-0.50;99.90;;;;;;4800723;29;20237;-82
2023/11/27 05:58:28;;;;;;;24.53;14.80;;;-0.40;99.90;;;;;;4610935;30;20813;-83
2023/11/27 06:19:13;;;;;;;22.20;14.03;;;-0.20;99.90;;;;;;4547432;30;20226;-85
2023/11/27 06:49:04;;;;;;;24.03;13.50;;;-0.20;99.90;;;;;;4574542;30;20741;-88
2023/11/27 07:14:50;;;;;;;26.43;14.30;;;-0.10;99.90;;;;;;4590332;30;20270;-85
2023/11/27 07:35:07;;;;;;;21.17;12.60;;;0.00;99.90;;;;;;4554800;30;20852;-84
2023/11/27 08:00:45;;;;;;;22.10;13.27;;;0.10;99.90;;;;;;4588862;30;20346;-85
2023/11/27 08:30:32;;;;;;;22.40;13.47;;;0.50;99.90;;;;;;4719014;29;21103;-84
2023/11/27 08:51:21;;;;;;;19.93;13.07;;;0.50;99.90;;;;;;4645392;29;20314;-85
2023/11/27 09:11:41;;;;;;;21.33;12.73;;;0.50;99.90;;;;;;4573243;30;20920;-86
2023/11/27 09:37:01;;;;;;;20.20;11.93;;;0.70;99.90;;;;;;4609715;30;20210;-84
2023/11/27 09:57:02;;;;;;;17.30;11.73;;;1.20;98.50;;;;;;4420020;31;21166;-84
2023/11/27 10:27:35;;;;;;;17.87;11.63;;;1.30;98.30;;;;;;4554140;30;20256;-82
2023/11/27 10:52:43;;;;;;;20.90;14.37;;;1.30;99.90;;;;;;4563740;30;20598;-85
2023/11/27 11:13:13;;;;;;;24.20;15.70;;;1.10;99.90;;;;;;4580555;30;20425;-82
2023/11/27 11:43:59;;;;;;;21.83;15.87;;;0.80;99.90;;;;;;4793120;29;20258;-87
2023/11/27 12:08:48;;;;;;;24.93;17.13;;;0.40;99.90;;;;;;4740925;29;20276;-85
2023/11/27 12:29:39;;;;;;;23.87;16.03;;;0.40;99.90;;;;;;4736662;29;20481;-84
2023/11/27 12:54:58;;;;;;;24.83;15.50;;;0.30;99.90;;;;;;4664619;29;20216;-86
2023/11/27 13:25:34;;;;;;;25.63;16.03;;;0.30;99.90;;;;;;4591473;29;21052;-86
2023/11/27 13:29:50;;;;;;;25.03;15.90;;;0.40;99.90;;;;;;4544989;30;21456;-82
2023/11/27 13:55:36;;;;;;;26.30;15.97;;;0.30;99.90;;;;;;4607231;29;20332;-82
2023/11/27 14:30:47;;;;;;;23.47;15.13;;;0.30;99.90;;;;;;4535828;29;20992;-84
2023/11/27 14:56:35;;;;;;;25.67;13.90;;;0.20;99.90;;;;;;4564912;30;20206;-85
2023/11/27 15:21:57;;;;;;;21.50;13.07;;;0.40;99.90;;;;;;4642377;29;20286;-86
2023/11/27 15:57:21;;;;;;;18.20;11.70;;;0.40;99.90;;;;;;4713300;29;20271;-83
2023/11/27 16:23:02;;;;;;;17.13;10.83;;;0.40;99.90;;;;;;4696784;29;20216;-84
2023/11/27 16:48:28;;;;;;;21.33;12.73;;;0.40;99.90;;;;;;4697069;29;20206;-86
2023/11/27 16:52:48;;;;;;;20.47;13.30;;;0.20;99.90;;;;;;4639773;29;20602;-83
2023/11/27 17:13:29;;;;;;;21.13;11.87;;;0.40;99.90;;;;;;4767858;29;20287;-84
2023/11/27 17:44:08;;;;;;;23.17;13.63;;;0.30;99.90;;;;;;4758763;29;20238;-85
2023/11/27 18:09:19;;;;;;;26.67;14.97;;;0.40;99.90;;;;;;4618688;30;20288;-85
2023/11/27 18:29:27;;;;;;;28.17;16.93;;;0.30;99.90;;;;;;4505703;30;20848;-85
2023/11/27 19:55:34;;;;;;;44.47;24.43;;;0.40;99.90;;;;;;4594224;30;20519;-85
2023/11/27 20:16:08;;;;;;;50.90;28.40;;;0.40;99.90;;;;;;4628141;30;20530;-86
2023/11/27 20:36:45;;;;;;;53.13;30.53;;;0.40;99.90;;;;;;4622266;30;20221;-85
2023/11/27 21:07:07;;;;;;;59.50;27.80;;;0.40;99.90;;;;;;4670163;30;21247;-83
2023/11/27 21:37:28;;;;;;;56.33;28.83;;;0.40;99.90;;;;;;4788933;29;20379;-86
2023/11/27 22:23:19;;;;;;;52.87;29.83;;;0.40;99.90;;;;;;4533725;30;20292;-83
2023/11/27 22:27:39;;;;;;;54.80;28.47;;;0.40;99.90;;;;;;4492688;30;20481;-84
2023/11/27 22:53:27;;;;;;;53.57;29.37;;;0.30;99.90;;;;;;4585472;30;20210;-86
